createdAt,value
2022-12-18T00:04:22.280Z,-9.7
2022-12-18T00:14:24.068Z,-9.7
2022-12-18T00:24:26.273Z,-9.7
2022-12-18T00:34:27.824Z,-9.8
2022-12-18T00:54:31.048Z,-9.8
2022-12-18T01:04:32.915Z,-9.9
2022-12-18T01:14:34.814Z,-9.9
2022-12-18T01:24:36.427Z,-9.9
2022-12-18T01:44:39.206Z,-10.1
2022-12-18T01:54:41.141Z,-10.1
2022-12-18T02:04:47.881Z,-10.2
2022-12-18T02:14:44.627Z,-10.3
2022-12-18T02:24:46.720Z,-10.3
2022-12-18T02:34:47.666Z,-10.4
2022-12-18T02:54:51.420Z,-10.5
2022-12-18T03:14:53.678Z,-10.8
2022-12-18T03:24:55.556Z,-10.9
2022-12-18T03:34:56.986Z,-10.8
2022-12-18T03:44:58.275Z,-10.7
2022-12-18T03:55:00.234Z,-10.8
2022-12-18T04:15:03.071Z,-11
2022-12-18T04:25:04.832Z,-11
2022-12-18T04:35:06.549Z,-11
2022-12-18T04:45:08.317Z,-11
2022-12-18T04:55:09.878Z,-10.9
2022-12-18T05:05:11.144Z,-11
2022-12-18T05:15:12.565Z,-11
2022-12-18T05:25:13.662Z,-11.1
2022-12-18T05:35:14.781Z,-11.2
2022-12-18T05:45:16.348Z,-11.2
2022-12-18T05:55:17.934Z,-11.3
2022-12-18T06:15:20.466Z,-11.4
2022-12-18T06:25:21.711Z,-11.5
2022-12-18T06:35:23.402Z,-11.5
2022-12-18T06:45:24.560Z,-11.6
2022-12-18T06:55:26.416Z,-11.5
2022-12-18T07:05:27.709Z,-11.5
2022-12-18T07:15:29.353Z,-11.5
2022-12-18T07:25:31.385Z,-11.4
2022-12-18T07:35:32.741Z,-11.2
2022-12-18T07:45:34.825Z,-11.1
2022-12-18T07:55:54.908Z,-11
2022-12-18T08:05:37.593Z,-10.7
2022-12-18T08:15:38.753Z,-10.5
2022-12-18T08:25:40.322Z,-10.2
2022-12-18T08:35:45.716Z,-9.9
2022-12-18T09:35:51.175Z,-7.3
2022-12-18T09:45:52.624Z,-6.9
2022-12-18T09:55:54.373Z,-6.4
2022-12-18T10:25:59.306Z,-5.5
2022-12-18T10:36:00.649Z,-5
2022-12-18T10:56:03.975Z,-4.3
2022-12-18T11:26:08.508Z,-3.3
2022-12-18T11:36:10.349Z,-3
2022-12-18T11:46:16.213Z,-2.8
2022-12-18T12:06:14.419Z,-2.4
2022-12-18T12:16:16.252Z,-2.2
2022-12-18T12:56:23.322Z,-1.8
2022-12-18T13:06:24.644Z,-1.8
2022-12-18T13:16:25.920Z,-1.8
2022-12-18T13:26:28.970Z,-1.7
2022-12-18T13:36:29.057Z,-1.7
2022-12-18T13:46:30.153Z,-1.7
2022-12-18T13:56:31.380Z,-1.8
2022-12-18T14:16:34.439Z,-1.9
2022-12-18T14:36:37.790Z,-1.9
2022-12-18T14:46:39.621Z,-1.9
2022-12-18T14:56:40.905Z,-1.8
2022-12-18T15:26:46.430Z,-1.6
2022-12-18T15:36:47.468Z,-1.6
2022-12-18T15:46:48.830Z,-1.6
2022-12-18T15:56:50.164Z,-1.7
2022-12-18T16:07:14.234Z,-1.7
2022-12-18T16:16:52.543Z,-1.6
2022-12-18T16:26:54.359Z,-1.7
2022-12-18T16:36:58.960Z,-1.7
2022-12-18T16:46:57.063Z,-1.8
2022-12-18T17:06:59.521Z,-1.9
2022-12-18T17:17:20.724Z,-1.7
2022-12-18T17:27:03.212Z,-1.8
2022-12-18T17:37:05.167Z,-1.8
2022-12-18T17:47:06.445Z,-1.9
2022-12-18T18:07:09.369Z,-1.6
2022-12-18T18:27:11.849Z,-1.5
2022-12-18T18:47:15.549Z,-1.1
2022-12-18T18:57:21.046Z,-0.7
2022-12-18T19:07:24.324Z,-0.1
2022-12-18T19:27:22.183Z,0
2022-12-18T19:37:23.591Z,0
2022-12-18T19:47:25.271Z,0
2022-12-18T19:57:26.997Z,0.1
2022-12-18T20:07:28.627Z,0.2
2022-12-18T20:17:30.431Z,0.2
2022-12-18T20:37:33.615Z,0.3
2022-12-18T22:07:47.746Z,0.1
2022-12-18T22:17:49.659Z,0.1
2022-12-18T22:27:51.381Z,0.2
2022-12-18T22:57:56.592Z,0.3
2022-12-18T23:00:35.053Z,0.3
2022-12-18T23:18:08.944Z,0.4
2022-12-18T23:28:10.884Z,0.4
2022-12-18T23:58:15.643Z,0.2
